Airport View

Enter AWOS ICAO identifier for current METAR.

ex. KFNL

KAEJ 250350Z AUTO 32008KT 10SM CLR 15/M02 A3026 RMK AO2 T01531023

25 Jun 2018 03:52

Frequency: 132.925

Phone: 719-395-2599

Other Area AWOS: K7BM - KANK - KMYP - KLXV

TAF AMD KASE 250218Z 2502/2524 32008KT P6SM SCT090 BKN150 FM250300 20006KT P6SM FEW250 FM251800 34011G20KT P6SM FEW250